Time;durP1;ratioP1;P1;durP2;ratioP2;P2;SDS_P1;SDS_P2;PMS_P1;PMS_P2;Temp;Humidity;BMP_temperature;BMP_pressure;BME280_temperature;BME280_humidity;BME280_pressure;Samples;Min_cycle;Max_cycle;Signal;HPM_P1;HPM_P2
2023/09/22 00:01:55;;;;;;;9.10;8.20;;;;;;;16.62;87.71;100473.40;88175;282;135895;-73
2023/09/22 00:03:57;;;;;;;10.80;9.10;;;;;;;16.55;87.83;100470.23;87792;287;597969;-75
2023/09/22 00:05:59;;;;;;;12.30;8.30;;;;;;;16.49;88.04;100474.11;88263;283;135536;-75
2023/09/22 00:08:04;;;;;;;10.10;9.20;;;;;;;16.42;88.14;100478.53;88186;280;136379;-75
2023/09/22 00:10:08;;;;;;;12.30;8.00;;;;;;;16.36;88.48;100480.75;88305;287;24223;-74
2023/09/22 00:12:09;;;;;;;13.20;8.70;;;;;;;16.30;88.71;100480.11;88226;285;137218;-75
2023/09/22 00:14:11;;;;;;;9.00;8.30;;;;;;;16.31;88.47;100478.52;88264;280;22530;-75
2023/09/22 00:16:13;;;;;;;8.40;7.60;;;;;;;16.31;88.48;100480.36;88184;284;137081;-74
2023/09/22 00:18:15;;;;;;;15.40;8.70;;;;;;;16.28;88.56;100478.43;88206;285;26253;-76
2023/09/22 00:20:16;;;;;;;10.60;8.10;;;;;;;16.24;88.48;100480.59;88179;281;136116;-75
2023/09/22 00:22:18;;;;;;;11.80;9.20;;;;;;;16.20;88.65;100483.52;88428;276;24430;-74
2023/09/22 00:24:20;;;;;;;8.70;8.00;;;;;;;16.15;88.85;100482.58;88220;277;136461;-78
2023/09/22 00:26:22;;;;;;;9.20;8.30;;;;;;;16.11;88.83;100482.75;88495;285;22883;-75
2023/09/22 00:28:24;;;;;;;11.60;8.50;;;;;;;16.06;88.70;100478.35;88329;285;136132;-77
2023/09/22 00:30:26;;;;;;;9.30;8.40;;;;;;;16.02;88.96;100483.86;88286;287;24199;-75
2023/09/22 00:32:30;;;;;;;11.00;9.40;;;;;;;15.94;89.61;100489.38;89140;278;135808;-73
2023/09/22 00:34:33;;;;;;;11.40;8.60;;;;;;;15.84;89.98;100482.39;90031;285;22614;-72
2023/09/22 00:36:35;;;;;;;9.80;8.80;;;;;;;15.80;90.08;100487.48;89935;285;135806;-75
2023/09/22 00:38:37;;;;;;;9.50;8.50;;;;;;;15.77;90.06;100488.58;89881;285;23761;-75
2023/09/22 00:40:39;;;;;;;10.40;8.90;;;;;;;15.77;89.91;100489.48;88334;283;136468;-71
2023/09/22 00:42:41;;;;;;;9.80;8.60;;;;;;;15.81;89.80;100489.42;88807;285;22531;-75
2023/09/22 00:44:43;;;;;;;11.20;8.60;;;;;;;15.82;89.54;100485.27;88303;280;136100;-74
2023/09/22 00:46:45;;;;;;;11.90;8.10;;;;;;;15.84;89.34;100482.73;88323;287;25183;-78
2023/09/22 00:48:50;;;;;;;10.90;8.30;;;;;;;15.84;89.30;100487.77;88351;282;136289;-75
2023/09/22 00:50:54;;;;;;;8.60;7.90;;;;;;;15.83;89.39;100485.14;88506;277;22546;-75
2023/09/22 00:52:56;;;;;;;10.30;8.20;;;;;;;15.82;89.44;100484.15;88307;282;135940;-77
2023/09/22 00:54:59;;;;;;;11.10;9.60;;;;;;;15.82;89.25;100485.85;88484;284;25093;-75
2023/09/22 00:57:04;;;;;;;11.20;7.80;;;;;;;15.80;89.15;100486.02;88278;277;137503;-79
2023/09/22 00:59:07;;;;;;;13.90;8.20;;;;;;;15.79;89.17;100486.16;88371;282;22534;-76
2023/09/22 01:01:09;;;;;;;9.00;8.10;;;;;;;15.76;89.39;100484.02;88307;285;135718;-73
2023/09/22 01:03:14;;;;;;;9.50;8.70;;;;;;;15.73;89.57;100488.63;88399;277;24099;-77
2023/09/22 01:05:20;;;;;;;11.40;9.00;;;;;;;15.72;89.67;100488.25;88319;278;137230;-75
2023/09/22 01:07:22;;;;;;;11.30;9.30;;;;;;;15.69;89.94;100486.12;88354;283;22623;-74
2023/09/22 01:09:24;;;;;;;9.00;8.10;;;;;;;15.66;89.95;100489.00;88269;278;136170;-73
2023/09/22 01:11:27;;;;;;;11.70;8.90;;;;;;;15.66;89.87;100491.48;88227;280;25115;-74
2023/09/22 01:13:29;;;;;;;9.40;8.60;;;;;;;15.69;90.03;100493.77;88174;282;136856;-74
2023/09/22 01:15:42;;;;;;;10.90;7.10;;;;;;;15.69;90.21;100492.61;88433;278;24170;-75
2023/09/22 01:17:45;;;;;;;9.20;7.40;;;;;;;15.65;90.58;100490.83;88367;278;136508;-75
2023/09/22 01:19:47;;;;;;;8.70;7.80;;;;;;;15.60;90.67;100492.55;88380;278;22545;-74
2023/09/22 01:21:49;;;;;;;9.10;8.10;;;;;;;15.52;91.03;100490.09;88156;277;135978;-72
2023/09/22 01:23:51;;;;;;;8.70;7.80;;;;;;;15.48;91.26;100486.45;88428;282;24090;-75
2023/09/22 01:25:53;;;;;;;8.20;7.60;;;;;;;15.44;91.22;100491.46;88204;286;136581;-73
2023/09/22 01:27:55;;;;;;;9.40;8.30;;;;;;;15.41;91.54;100492.43;88357;287;25380;-75
2023/09/22 01:29:56;;;;;;;10.50;8.60;;;;;;;15.40;91.95;100489.23;88295;277;135915;-76
2023/09/22 01:31:58;;;;;;;9.50;8.50;;;;;;;15.37;92.28;100489.16;88390;285;22706;-74
2023/09/22 01:34:01;;;;;;;14.20;8.60;;;;;;;15.36;92.71;100494.29;88713;284;136331;-72
2023/09/22 01:36:03;;;;;;;10.80;8.50;;;;;;;15.39;92.58;100494.14;88390;287;138577;-72
2023/09/22 01:38:18;;;;;;;9.80;7.80;;;;;;;15.38;92.30;100492.23;88367;277;24093;-74
2023/09/22 01:40:21;;;;;;;10.90;7.30;;;;;;;15.41;92.20;100490.33;88443;285;136839;-76
2023/09/22 01:42:23;;;;;;;9.60;7.10;;;;;;;15.43;92.40;100491.84;88490;278;22547;-73
2023/09/22 01:44:25;;;;;;;8.20;7.50;;;;;;;15.41;92.36;100491.70;88305;278;135831;-71
2023/09/22 01:46:27;;;;;;;10.50;7.70;;;;;;;15.38;92.46;100489.23;88494;281;22708;-73
2023/09/22 01:48:29;;;;;;;9.10;8.20;;;;;;;15.37;92.49;100491.21;88256;277;135621;-73
2023/09/22 01:50:40;;;;;;;9.80;8.30;;;;;;;15.35;92.54;100490.95;88401;282;24427;-74
2023/09/22 01:52:42;;;;;;;8.80;7.90;;;;;;;15.29;92.79;100490.69;88213;285;136070;-75
2023/09/22 01:54:44;;;;;;;9.30;8.50;;;;;;;15.28;92.77;100487.64;88328;278;24056;-75
2023/09/22 01:56:46;;;;;;;8.90;8.10;;;;;;;15.27;92.85;100485.73;88390;281;138145;-74
2023/09/22 01:58:48;;;;;;;9.70;8.80;;;;;;;15.27;92.87;100484.70;88398;282;25093;-74
2023/09/22 02:00:51;;;;;;;9.00;8.10;;;;;;;15.29;92.86;100483.61;88849;282;136742;-73
2023/09/22 02:02:55;;;;;;;14.90;8.80;;;;;;;15.32;92.76;100480.96;88488;281;22565;-74
2023/09/22 02:04:57;;;;;;;11.20;7.60;;;;;;;15.36;92.61;100475.77;88373;285;136630;-75
2023/09/22 02:06:59;;;;;;;10.10;7.40;;;;;;;15.35;92.45;100476.14;88411;285;23875;-76
2023/09/22 02:09:03;;;;;;;8.50;7.70;;;;;;;15.36;92.46;100477.88;88291;282;136009;-75
2023/09/22 02:11:05;;;;;;;9.60;8.20;;;;;;;15.31;92.41;100471.58;88310;279;22822;-75
2023/09/22 02:13:09;;;;;;;10.30;7.80;;;;;;;15.35;92.40;100476.77;88173;278;135935;-74
2023/09/22 02:15:12;;;;;;;10.40;8.60;;;;;;;15.35;92.40;100472.30;88461;285;22534;-75
2023/09/22 02:17:15;;;;;;;11.50;8.70;;;;;;;15.36;92.40;100473.96;88362;277;136940;-73
2023/09/22 02:19:16;;;;;;;8.20;7.50;;;;;;;15.38;92.31;100474.77;88316;278;22664;-75
2023/09/22 02:21:20;;;;;;;12.10;7.70;;;;;;;15.40;92.39;100476.12;88397;281;136571;-74
2023/09/22 02:23:26;;;;;;;9.20;8.20;;;;;;;15.41;92.34;100475.23;88640;282;24920;-74
2023/09/22 02:25:28;;;;;;;7.80;7.00;;;;;;;15.43;92.23;100476.92;88480;275;136664;-75
2023/09/22 02:27:30;;;;;;;9.30;8.00;;;;;;;15.47;91.94;100478.51;88484;284;22557;-74
2023/09/22 02:29:32;;;;;;;8.60;7.90;;;;;;;15.49;91.96;100475.48;88546;278;137087;-74
2023/09/22 02:31:34;;;;;;;7.70;7.00;;;;;;;15.53;91.77;100474.30;88570;277;25207;-75
2023/09/22 02:33:38;;;;;;;9.80;8.10;;;;;;;15.55;91.70;100472.59;88671;281;136361;-76
2023/09/22 02:35:41;;;;;;;8.50;7.70;;;;;;;15.52;91.62;100472.23;88557;282;25084;-77
2023/09/22 02:37:44;;;;;;;8.30;7.30;;;;;;;15.53;91.49;100472.06;88525;274;137385;-75
2023/09/22 02:39:45;;;;;;;10.50;7.30;;;;;;;15.53;91.50;100472.60;88545;279;22531;-75
2023/09/22 02:41:48;;;;;;;11.60;7.70;;;;;;;15.52;91.70;100469.38;88634;275;136570;-73
2023/09/22 02:43:50;;;;;;;11.60;8.50;;;;;;;15.49;91.73;100471.31;88916;282;22628;-78
2023/09/22 02:45:51;;;;;;;7.80;7.20;;;;;;;15.49;91.77;100466.92;88636;281;135885;-76
2023/09/22 02:47:54;;;;;;;8.80;7.90;;;;;;;15.48;92.02;100472.48;88546;282;22684;-75
2023/09/22 02:49:57;;;;;;;11.20;7.20;;;;;;;15.46;92.16;100474.50;88619;274;136093;-76
2023/09/22 02:51:58;;;;;;;10.60;7.80;;;;;;;15.42;92.17;100470.77;88607;282;24021;-75
2023/09/22 02:54:03;;;;;;;11.30;9.10;;;;;;;15.42;92.45;100471.48;88340;283;136170;-75
2023/09/22 02:56:05;;;;;;;8.20;7.60;;;;;;;15.43;92.43;100473.21;88531;281;137310;-77
2023/09/22 02:58:08;;;;;;;9.80;8.10;;;;;;;15.43;92.60;100474.05;88686;274;22530;-76
2023/09/22 03:00:14;;;;;;;14.20;8.00;;;;;;;15.45;92.50;100476.80;88664;281;137497;-75
2023/09/22 03:02:17;;;;;;;9.80;8.10;;;;;;;15.46;92.56;100482.45;88624;278;25114;-75
2023/09/22 03:04:19;;;;;;;10.90;8.60;;;;;;;15.44;92.55;100482.34;88482;283;136152;-76
2023/09/22 03:06:21;;;;;;;11.80;7.90;;;;;;;15.41;92.80;100481.73;88479;278;22546;-76
2023/09/22 03:08:23;;;;;;;8.80;7.60;;;;;;;15.36;93.06;100481.05;88431;278;137612;-77
2023/09/22 03:10:25;;;;;;;9.70;8.80;;;;;;;15.31;93.43;100484.11;88583;274;22616;-73
2023/09/22 03:12:27;;;;;;;8.40;7.70;;;;;;;15.25;93.83;100484.23;88509;281;136565;-77
2023/09/22 03:14:29;;;;;;;8.60;7.80;;;;;;;15.23;94.04;100479.33;88649;282;24689;-75
2023/09/22 03:16:31;;;;;;;9.60;8.70;;;;;;;15.23;94.33;100478.75;88530;282;138338;-73
2023/09/22 03:18:33;;;;;;;8.80;8.10;;;;;;;15.22;94.37;100478.80;88581;283;22624;-78
2023/09/22 03:20:35;;;;;;;11.30;8.50;;;;;;;15.22;94.61;100480.23;88482;275;137215;-76
2023/09/22 03:22:38;;;;;;;11.50;8.90;;;;;;;15.21;94.58;100480.09;88692;275;22509;-75
2023/09/22 03:24:41;;;;;;;;;;;;;;;15.18;94.87;100478.77;89201;278;136511;-75
2023/09/22 03:26:46;;;;;;;9.50;8.60;;;;;;;15.15;95.17;100486.42;88704;276;25164;-75
2023/09/22 03:28:48;;;;;;;11.20;9.50;;;;;;;15.09;95.29;100487.00;88981;281;136165;-73
2023/09/22 03:30:51;;;;;;;11.90;9.00;;;;;;;15.05;95.49;100489.46;88702;279;23939;-74
2023/09/22 03:32:53;;;;;;;9.10;8.30;;;;;;;15.06;95.60;100492.02;88535;274;135965;-74
2023/09/22 03:34:57;;;;;;;10.70;8.90;;;;;;;15.05;95.91;100488.88;88828;279;24043;-75
2023/09/22 03:36:59;;;;;;;13.50;8.80;;;;;;;15.02;95.99;100489.88;88876;282;136815;-74
2023/09/22 03:39:03;;;;;;;17.10;10.10;;;;;;;15.01;96.18;100491.41;88792;281;24948;-75
2023/09/22 03:41:06;;;;;;;9.50;8.50;;;;;;;14.99;96.38;100494.10;88835;275;137374;-75
2023/09/22 03:43:08;;;;;;;9.10;8.10;;;;;;;14.98;96.64;100499.98;89117;278;23291;-73
2023/09/22 03:45:11;;;;;;;12.50;7.50;;;;;;;14.94;96.63;100506.48;88968;277;136829;-75
2023/09/22 03:47:13;;;;;;;9.20;8.30;;;;;;;14.95;96.73;100509.39;89248;278;24678;-73
2023/09/22 03:49:15;;;;;;;11.00;9.30;;;;;;;14.94;96.97;100507.50;89009;281;137478;-74
2023/09/22 03:51:17;;;;;;;10.20;9.20;;;;;;;14.93;97.10;100513.09;89001;282;23687;-75
2023/09/22 03:53:20;;;;;;;11.10;9.20;;;;;;;14.91;97.21;100515.15;88904;283;135835;-75
2023/09/22 03:55:22;;;;;;;10.70;8.90;;;;;;;14.86;97.52;100514.35;89285;282;25105;-75
2023/09/22 03:57:24;;;;;;;13.90;10.20;;;;;;;14.87;97.77;100515.14;88894;281;136566;-74
2023/09/22 03:59:26;;;;;;;14.60;9.80;;;;;;;14.90;97.87;100518.80;88849;275;22536;-74
2023/09/22 04:01:28;;;;;;;10.00;9.10;;;;;;;14.94;97.98;100522.61;88410;281;137160;-77
2023/09/22 04:03:31;;;;;;;17.70;9.40;;;;;;;14.99;97.87;100522.81;88442;275;22531;-74
2023/09/22 04:05:34;;;;;;;15.30;10.40;;;;;;;15.05;97.98;100517.91;88539;282;137394;-75
2023/09/22 04:07:35;;;;;;;12.60;9.80;;;;;;;15.16;98.16;100514.52;88499;274;22530;-75
2023/09/22 04:09:37;;;;;;;12.40;9.20;;;;;;;15.34;97.65;100510.24;88364;282;138036;-76
2023/09/22 04:11:39;;;;;;;10.80;9.40;;;;;;;15.51;97.32;100507.54;88718;280;22557;-72
2023/09/22 04:13:41;;;;;;;11.30;10.10;;;;;;;15.69;96.54;100512.09;88375;276;136378;-74
2023/09/22 04:15:43;;;;;;;11.00;8.90;;;;;;;15.93;96.18;100513.27;88384;275;22612;-74
2023/09/22 04:17:46;;;;;;;14.20;9.90;;;;;;;16.19;94.74;100512.37;88407;274;136221;-76
2023/09/22 04:19:49;;;;;;;19.60;10.10;;;;;;;16.44;93.31;100514.10;89073;275;25148;-74
2023/09/22 04:21:52;;;;;;;13.10;9.40;;;;;;;16.68;92.57;100517.70;88671;273;136656;-74
2023/09/22 04:23:57;;;;;;;10.00;8.90;;;;;;;16.96;91.55;100517.87;88684;277;22533;-79
2023/09/22 04:26:02;;;;;;;13.80;9.30;;;;;;;17.27;90.04;100516.67;88737;275;136193;-76
2023/09/22 04:28:17;;;;;;;10.60;9.00;;;;;;;17.55;87.98;100516.20;88567;275;138412;-74
2023/09/22 04:30:20;;;;;;;10.40;8.70;;;;;;;17.72;86.64;100515.58;88439;281;22541;-75
2023/09/22 04:32:23;;;;;;;11.90;9.40;;;;;;;17.80;86.13;100513.71;88408;282;136613;-75
2023/09/22 04:34:25;;;;;;;16.40;9.20;;;;;;;17.88;86.27;100514.47;88793;277;24208;-73
2023/09/22 04:36:28;;;;;;;9.70;7.60;;;;;;;18.02;85.44;100513.41;88852;278;136044;-74
2023/09/22 04:38:29;;;;;;;9.80;7.60;;;;;;;18.15;85.06;100504.98;89737;281;24087;-74
2023/09/22 04:40:36;;;;;;;11.50;8.90;;;;;;;18.51;84.15;100519.91;89036;273;136045;-77
2023/09/22 04:42:39;;;;;;;9.00;8.10;;;;;;;18.88;83.04;100520.45;91097;281;22512;-73
2023/09/22 04:44:41;;;;;;;13.10;8.30;;;;;;;19.25;80.67;100520.97;90360;273;136123;-71
2023/09/22 04:46:44;;;;;;;9.70;8.20;;;;;;;19.60;79.00;100520.80;90352;275;22534;-72
2023/09/22 04:48:46;;;;;;;13.90;10.10;;;;;;;19.95;77.46;100520.05;89799;283;135937;-74
2023/09/22 04:50:56;;;;;;;9.80;8.00;;;;;;;20.27;76.23;100520.70;89959;277;22605;-75
2023/09/22 04:52:58;;;;;;;10.40;7.80;;;;;;;20.60;74.78;100520.59;89820;281;136295;-73
2023/09/22 04:55:00;;;;;;;9.70;8.20;;;;;;;20.88;72.79;100522.15;88961;282;25201;-74
2023/09/22 04:57:02;;;;;;;9.70;7.80;;;;;;;21.12;72.46;100524.32;88405;281;136671;-73
2023/09/22 04:59:04;;;;;;;12.10;7.80;;;;;;;21.35;70.88;100526.25;88576;281;24242;-74
2023/09/22 05:01:06;;;;;;;8.90;7.60;;;;;;;21.40;69.82;100528.26;88461;281;136340;-75
2023/09/22 05:03:08;;;;;;;9.10;8.00;;;;;;;21.25;70.43;100525.92;88587;278;24632;-74
2023/09/22 05:05:11;;;;;;;9.70;7.70;;;;;;;21.10;70.96;100528.05;88520;273;136157;-74
2023/09/22 05:07:13;;;;;;;11.90;8.00;;;;;;;21.07;71.63;100525.40;88586;280;22545;-75
2023/09/22 05:09:15;;;;;;;11.20;7.60;;;;;;;21.12;71.43;100525.24;88648;283;137325;-73
2023/09/22 05:11:17;;;;;;;8.70;7.90;;;;;;;21.21;71.29;100530.11;89004;274;23388;-73
2023/09/22 05:13:19;;;;;;;8.50;7.00;;;;;;;21.32;70.88;100528.82;88819;280;135985;-74
2023/09/22 05:15:21;;;;;;;13.00;7.60;;;;;;;21.32;70.13;100528.27;88815;274;24101;-73
2023/09/22 05:17:23;;;;;;;7.80;6.30;;;;;;;21.31;70.25;100531.59;88389;277;136454;-75
2023/09/22 05:19:25;;;;;;;11.80;7.40;;;;;;;21.35;70.42;100529.17;88902;275;22599;-73
2023/09/22 05:21:27;;;;;;;8.20;6.80;;;;;;;21.51;70.21;100524.48;88901;278;136793;-75
2023/09/22 05:23:30;;;;;;;7.90;6.50;;;;;;;21.72;69.38;100521.10;89106;273;25197;-75
2023/09/22 05:25:32;;;;;;;7.90;6.60;;;;;;;21.86;68.16;100523.92;88630;275;137008;-75
2023/09/22 05:27:35;;;;;;;7.70;6.50;;;;;;;21.88;68.18;100524.65;88755;273;24260;-75
2023/09/22 05:29:36;;;;;;;9.60;6.70;;;;;;;21.86;67.84;100527.63;88721;278;137068;-72
2023/09/22 05:31:38;;;;;;;7.40;6.00;;;;;;;21.76;67.95;100523.09;88875;277;22545;-74
2023/09/22 05:33:40;;;;;;;7.80;6.40;;;;;;;21.73;68.63;100531.33;88404;275;137016;-76
2023/09/22 05:35:42;;;;;;;9.50;6.00;;;;;;;21.73;67.97;100533.81;88479;274;24061;-76
2023/09/22 05:37:44;;;;;;;9.00;5.90;;;;;;;21.56;68.12;100522.30;88838;282;138789;-75
2023/09/22 05:39:46;;;;;;;9.20;6.40;;;;;;;21.58;68.42;100533.51;88933;275;23493;-73
2023/09/22 05:41:48;;;;;;;7.30;6.50;;;;;;;21.62;68.40;100534.03;88445;275;136018;-76
2023/09/22 05:43:53;;;;;;;11.10;6.50;;;;;;;21.65;68.26;100531.23;88891;275;22693;-73
2023/09/22 05:45:55;;;;;;;;;;;;;;;21.72;67.65;100531.30;88693;277;137292;-73
2023/09/22 05:47:59;;;;;;;13.50;5.10;;;;;;;21.77;67.31;100534.06;88588;274;25335;-73
2023/09/22 05:50:05;;;;;;;10.70;6.80;;;;;;;21.87;67.00;100528.28;88624;279;136919;-77
2023/09/22 05:52:07;;;;;;;12.00;6.60;;;;;;;21.95;66.08;100532.96;88685;274;136588;-74
2023/09/22 05:54:10;;;;;;;14.50;7.70;;;;;;;22.01;66.38;100531.27;88644;277;25165;-78
2023/09/22 05:56:12;;;;;;;7.70;5.30;;;;;;;22.25;65.36;100533.52;88668;274;136508;-77
2023/09/22 05:58:14;;;;;;;9.50;5.40;;;;;;;22.55;64.16;100536.09;88537;273;24053;-74
2023/09/22 06:00:16;;;;;;;7.20;5.60;;;;;;;22.95;61.86;100531.52;88435;273;138095;-75
2023/09/22 06:02:20;;;;;;;6.60;5.40;;;;;;;23.30;60.52;100530.17;88601;281;25118;-76
2023/09/22 06:04:22;;;;;;;9.10;6.30;;;;;;;23.43;59.40;100524.92;88487;278;137217;-74
2023/09/22 06:06:24;;;;;;;5.40;4.60;;;;;;;23.59;58.19;100531.20;88455;282;25294;-75
2023/09/22 06:08:26;;;;;;;7.60;5.70;;;;;;;23.61;57.55;100532.56;88385;273;136650;-75
2023/09/22 06:10:28;;;;;;;6.50;5.20;;;;;;;23.60;56.63;100538.39;88586;273;26964;-73
2023/09/22 06:12:30;;;;;;;6.90;5.10;;;;;;;23.51;57.16;100535.48;88488;277;136455;-74
2023/09/22 06:14:33;;;;;;;7.90;5.10;;;;;;;23.46;56.92;100534.62;88491;280;25388;-74
2023/09/22 06:16:35;;;;;;;10.30;5.60;;;;;;;23.40;56.45;100538.02;88447;273;136306;-72
2023/09/22 06:18:39;;;;;;;7.10;5.20;;;;;;;23.28;56.50;100541.16;88519;280;24059;-73
2023/09/22 06:20:41;;;;;;;6.90;5.20;;;;;;;23.24;56.90;100538.37;88453;280;136332;-73
2023/09/22 06:22:45;;;;;;;8.90;5.70;;;;;;;23.24;56.00;100538.64;88673;278;22628;-71
2023/09/22 06:24:49;;;;;;;7.20;5.40;;;;;;;23.23;55.69;100545.44;88566;273;136288;-73
2023/09/22 06:26:52;;;;;;;5.80;4.40;;;;;;;23.14;55.21;100545.30;88926;274;22531;-74
2023/09/22 06:28:54;;;;;;;9.10;4.40;;;;;;;23.04;55.52;100543.03;88682;273;137370;-72
2023/09/22 06:31:03;;;;;;;6.60;6.00;;;;;;;22.87;55.95;100550.50;88788;281;22545;-74
2023/09/22 06:33:05;;;;;;;5.50;4.50;;;;;;;22.53;56.56;100550.48;88871;280;136267;-75
2023/09/22 06:35:10;;;;;;;10.50;5.50;;;;;;;22.20;57.77;100555.47;88960;272;22534;-76
2023/09/22 06:37:12;;;;;;;6.40;4.50;;;;;;;21.77;58.28;100556.91;88719;273;136240;-74
2023/09/22 06:39:14;;;;;;;6.70;5.30;;;;;;;21.38;59.28;100557.36;88650;273;22538;-73
2023/09/22 06:41:18;;;;;;;6.10;4.30;;;;;;;21.15;60.06;100554.77;88517;273;136393;-75
2023/09/22 06:43:23;;;;;;;8.80;5.80;;;;;;;21.03;61.18;100557.23;88623;280;22541;-75
2023/09/22 06:45:25;;;;;;;8.30;4.80;;;;;;;20.94;61.38;100556.95;88497;273;136164;-73
2023/09/22 06:47:28;;;;;;;8.20;5.70;;;;;;;20.74;61.89;100555.39;88634;273;22534;-75
2023/09/22 06:49:35;;;;;;;13.20;6.00;;;;;;;20.58;62.80;100561.39;88546;273;136110;-75
2023/09/22 06:51:38;;;;;;;8.40;5.50;;;;;;;20.48;63.86;100560.32;88675;274;22533;-74
2023/09/22 06:53:40;;;;;;;5.30;4.80;;;;;;;20.45;64.04;100566.66;88445;280;136346;-74
2023/09/22 06:55:42;;;;;;;7.20;6.20;;;;;;;20.42;63.98;100565.87;88557;274;24087;-73
2023/09/22 06:57:45;;;;;;;7.50;5.50;;;;;;;20.40;64.32;100567.45;88507;282;136060;-74
2023/09/22 06:59:50;;;;;;;7.10;5.50;;;;;;;20.32;65.01;100569.88;88601;277;22558;-74
2023/09/22 07:01:52;;;;;;;5.90;5.10;;;;;;;20.22;65.33;100566.54;88501;277;136356;-75
2023/09/22 07:03:56;;;;;;;8.70;6.20;;;;;;;20.14;66.05;100566.73;88612;273;25173;-73
2023/09/22 07:05:58;;;;;;;12.50;5.90;;;;;;;20.14;66.50;100562.67;88682;273;135992;-72
2023/09/22 07:08:03;;;;;;;11.00;5.40;;;;;;;20.18;66.67;100559.77;88612;273;25159;-76
2023/09/22 07:10:09;;;;;;;6.00;5.10;;;;;;;20.24;66.80;100564.04;88483;274;22520;-74
2023/09/22 07:12:11;;;;;;;9.10;4.70;;;;;;;20.26;66.27;100565.94;88482;273;136717;-71
2023/09/22 07:14:14;;;;;;;7.10;4.90;;;;;;;20.25;66.41;100564.80;88503;282;22581;-75
2023/09/22 07:16:16;;;;;;;12.90;5.40;;;;;;;20.27;67.03;100566.02;88309;275;136137;-74
2023/09/22 07:18:18;;;;;;;9.30;6.30;;;;;;;20.32;66.93;100568.09;88742;273;25181;-74
2023/09/22 07:20:21;;;;;;;12.20;4.40;;;;;;;20.34;67.06;100563.69;88554;273;137287;-75
2023/09/22 07:22:25;;;;;;;;;;;;;;;20.43;67.39;100563.98;88547;279;25107;-75
2023/09/22 07:24:27;;;;;;;10.50;5.10;;;;;;;20.53;67.35;100563.27;88576;273;122742;-75
2023/09/22 07:26:29;;;;;;;8.50;4.80;;;;;;;20.63;66.70;100560.89;88369;278;22635;-74
2023/09/22 07:28:34;;;;;;;4.90;4.50;;;;;;;20.68;66.64;100557.67;88370;273;136017;-75
2023/09/22 07:30:36;;;;;;;8.70;5.00;;;;;;;20.72;66.52;100558.89;88665;275;22464;-74
2023/09/22 07:32:38;;;;;;;5.60;4.30;;;;;;;20.79;66.74;100565.55;88499;275;136815;-74
2023/09/22 07:34:42;;;;;;;8.00;4.60;;;;;;;20.90;66.68;100565.63;88673;281;24208;-76
2023/09/22 07:36:44;;;;;;;8.80;5.10;;;;;;;21.02;66.48;100569.52;88715;277;136912;-76
2023/09/22 07:38:46;;;;;;;6.70;4.70;;;;;;;21.14;65.81;100570.27;88716;275;25167;-71
2023/09/22 07:40:49;;;;;;;9.70;4.60;;;;;;;21.23;65.73;100571.17;88323;281;136061;-74
2023/09/22 07:42:51;;;;;;;7.90;4.40;;;;;;;21.30;65.37;100565.34;88426;282;22548;-74
2023/09/22 07:44:53;;;;;;;6.70;4.60;;;;;;;21.36;65.30;100568.02;88298;275;136084;-73
2023/09/22 07:46:57;;;;;;;6.30;4.30;;;;;;;21.39;64.98;100567.45;88406;275;25144;-73
2023/09/22 07:48:59;;;;;;;5.50;3.80;;;;;;;21.36;65.15;100567.33;88524;278;136838;-74
2023/09/22 07:51:01;;;;;;;7.90;4.90;;;;;;;21.31;65.15;100566.89;88401;279;22802;-70
2023/09/22 07:53:03;;;;;;;10.30;5.60;;;;;;;21.30;65.78;100571.69;88492;280;136110;-73
2023/09/22 07:55:05;;;;;;;8.80;4.70;;;;;;;21.34;65.52;100568.42;88557;277;22527;-72
2023/09/22 07:57:07;;;;;;;6.10;4.10;;;;;;;21.42;65.28;100569.92;88549;280;136399;-75
2023/09/22 07:59:16;;;;;;;7.50;4.20;;;;;;;21.48;65.06;100566.27;88621;274;23599;-77
2023/09/22 08:01:18;;;;;;;5.00;4.30;;;;;;;21.53;64.70;100569.10;88582;277;138163;-74
2023/09/22 08:03:21;;;;;;;11.60;5.10;;;;;;;21.53;64.83;100564.88;88376;274;589865;-74
2023/09/22 08:05:24;;;;;;;8.90;5.20;;;;;;;21.57;64.83;100561.77;88781;274;141501;-74
2023/09/22 08:07:27;;;;;;;9.50;4.50;;;;;;;21.65;65.00;100563.84;88939;281;24164;-77
2023/09/22 08:09:29;;;;;;;15.10;5.50;;;;;;;21.72;64.05;100559.95;88663;275;137116;-73
2023/09/22 08:11:32;;;;;;;8.10;5.00;;;;;;;21.67;63.68;100545.52;88752;277;24029;-74
2023/09/22 08:13:35;;;;;;;12.00;5.30;;;;;;;21.77;63.75;100554.95;88579;281;137883;-74
2023/09/22 08:15:39;;;;;;;15.10;5.10;;;;;;;21.82;62.80;100552.92;88610;275;22613;-75
2023/09/22 08:17:42;;;;;;;;;;;;;;;21.87;62.68;100554.06;88572;280;136838;-76
2023/09/22 08:19:44;;;;;;;5.40;4.60;;;;;;;21.96;62.29;100548.60;88861;277;22560;-74
2023/09/22 08:21:48;;;;;;;6.10;4.20;;;;;;;22.00;61.29;100539.50;88292;278;137073;-76
2023/09/22 08:23:52;;;;;;;8.30;4.30;;;;;;;22.14;60.99;100548.90;88451;273;22545;-73
2023/09/22 08:25:56;;;;;;;4.90;4.50;;;;;;;22.21;60.83;100548.02;89417;280;138741;-74
2023/09/22 08:27:58;;;;;;;4.90;4.40;;;;;;;22.30;60.55;100549.21;88446;277;22523;-74
2023/09/22 08:30:09;;;;;;;4.40;3.70;;;;;;;22.40;59.30;100549.05;88411;280;137126;-72
2023/09/22 08:32:11;;;;;;;6.70;5.40;;;;;;;22.47;59.06;100548.18;88369;275;136463;-75
2023/09/22 08:34:13;;;;;;;7.40;3.70;;;;;;;22.53;59.00;100547.45;88513;281;25083;-70
2023/09/22 08:36:15;;;;;;;8.20;4.30;;;;;;;22.61;58.10;100548.63;88467;273;136348;-75
2023/09/22 08:38:19;;;;;;;5.40;3.90;;;;;;;22.66;57.46;100550.23;88523;280;22810;-72
2023/09/22 08:40:20;;;;;;;6.00;3.60;;;;;;;22.69;57.49;100549.11;88486;273;136570;-74
2023/09/22 08:42:23;;;;;;;4.20;2.90;;;;;;;22.71;57.40;100540.36;88569;281;22606;-73
2023/09/22 08:44:26;;;;;;;6.20;3.70;;;;;;;22.78;57.65;100544.42;88384;283;136597;-74
2023/09/22 08:46:28;;;;;;;6.60;3.30;;;;;;;22.82;56.35;100547.65;88609;282;22549;-79
2023/09/22 08:48:30;;;;;;;5.50;3.30;;;;;;;22.83;56.59;100545.31;88654;281;136105;-75
2023/09/22 08:50:32;;;;;;;7.20;2.90;;;;;;;22.75;56.68;100536.05;88920;273;22695;-73
2023/09/22 08:52:37;;;;;;;4.90;3.20;;;;;;;22.83;56.93;100535.27;88419;281;136248;-75
2023/09/22 08:54:39;;;;;;;8.60;2.70;;;;;;;22.90;56.86;100535.73;88488;274;26270;-74
2023/09/22 08:56:44;;;;;;;4.50;2.90;;;;;;;23.00;56.86;100530.28;88360;282;136363;-76
2023/09/22 08:58:46;;;;;;;3.60;2.40;;;;;;;23.13;56.59;100530.34;88431;279;22757;-74
2023/09/22 09:00:51;;;;;;;10.10;2.70;;;;;;;23.28;56.23;100533.17;88340;278;137422;-75
2023/09/22 09:03:01;;;;;;;5.80;2.80;;;;;;;23.42;55.72;100535.15;88885;274;22537;-76
2023/09/22 09:05:18;;;;;;;11.20;2.30;;;;;;;23.53;54.99;100529.84;88715;278;135988;-76
2023/09/22 09:07:22;;;;;;;4.50;2.70;;;;;;;23.59;55.03;100524.61;89639;278;25211;-74
2023/09/22 09:09:25;;;;;;;3.70;2.40;;;;;;;23.65;55.01;100525.49;88755;281;136203;-74
2023/09/22 09:11:27;;;;;;;3.60;2.00;;;;;;;23.76;54.00;100528.94;88825;274;22625;-76
2023/09/22 09:13:29;;;;;;;7.20;2.00;;;;;;;23.82;53.60;100524.77;89127;281;135843;-73
2023/09/22 09:15:41;;;;;;;5.20;2.40;;;;;;;23.85;53.65;100525.91;88663;280;22548;-74
2023/09/22 09:17:45;;;;;;;6.90;2.70;;;;;;;23.87;53.56;100529.18;88664;276;137299;-76
2023/09/22 09:19:53;;;;;;;2.90;2.70;;;;;;;23.87;54.01;100517.80;88872;278;25242;-77
2023/09/22 09:22:06;;;;;;;4.00;2.00;;;;;;;23.92;53.95;100517.36;88443;275;136045;-81
2023/09/22 09:24:08;;;;;;;4.50;1.90;;;;;;;23.96;52.90;100522.80;88676;275;136288;-77
2023/09/22 09:26:10;;;;;;;4.30;1.90;;;;;;;23.95;51.69;100524.06;88858;281;23995;-76
2023/09/22 09:28:13;;;;;;;4.50;1.80;;;;;;;23.93;51.67;100519.80;88586;275;136330;-77
2023/09/22 09:30:18;;;;;;;4.20;2.10;;;;;;;23.92;51.73;100526.40;88831;274;22537;-74
2023/09/22 09:32:27;;;;;;;3.30;1.70;;;;;;;23.93;51.58;100519.49;88568;275;136299;-76
2023/09/22 09:34:40;;;;;;;7.50;1.90;;;;;;;23.92;51.65;100524.99;88948;281;26353;-77